sensor_id;sensor_type;location;lat;lon;timestamp;P1;durP1;ratioP1;P2;durP2;ratioP2
6642;SDS011;3357;48.050;7.800;2023-08-30T00:00:07;2.37;;;2.27;;
6642;SDS011;3357;48.050;7.800;2023-08-30T00:02:32;2.07;;;1.87;;
6642;SDS011;3357;48.050;7.800;2023-08-30T00:04:58;2.10;;;2.00;;
6642;SDS011;3357;48.050;7.800;2023-08-30T00:07:24;2.27;;;2.17;;
6642;SDS011;3357;48.050;7.800;2023-08-30T00:09:49;1.50;;;1.40;;
6642;SDS011;3357;48.050;7.800;2023-08-30T00:12:15;3.90;;;2.27;;
6642;SDS011;3357;48.050;7.800;2023-08-30T00:14:40;2.10;;;2.00;;
6642;SDS011;3357;48.050;7.800;2023-08-30T00:17:06;4.20;;;2.30;;
6642;SDS011;3357;48.050;7.800;2023-08-30T00:19:31;1.57;;;1.47;;
6642;SDS011;3357;48.050;7.800;2023-08-30T00:21:56;3.73;;;2.10;;
6642;SDS011;3357;48.050;7.800;2023-08-30T00:24:22;2.23;;;2.13;;
6642;SDS011;3357;48.050;7.800;2023-08-30T00:26:47;7.33;;;2.40;;
6642;SDS011;3357;48.050;7.800;2023-08-30T00:29:12;3.57;;;2.13;;
6642;SDS011;3357;48.050;7.800;2023-08-30T00:31:38;2.23;;;2.10;;
6642;SDS011;3357;48.050;7.800;2023-08-30T00:34:03;2.30;;;2.10;;
6642;SDS011;3357;48.050;7.800;2023-08-30T00:36:28;4.13;;;1.87;;
6642;SDS011;3357;48.050;7.800;2023-08-30T00:38:54;2.20;;;2.10;;
6642;SDS011;3357;48.050;7.800;2023-08-30T00:41:19;2.20;;;2.10;;
6642;SDS011;3357;48.050;7.800;2023-08-30T00:43:44;2.67;;;1.60;;
6642;SDS011;3357;48.050;7.800;2023-08-30T00:46:10;2.70;;;1.83;;
6642;SDS011;3357;48.050;7.800;2023-08-30T00:48:35;1.80;;;1.70;;
6642;SDS011;3357;48.050;7.800;2023-08-30T00:51:00;1.40;;;1.37;;
6642;SDS011;3357;48.050;7.800;2023-08-30T00:53:26;3.10;;;2.20;;
6642;SDS011;3357;48.050;7.800;2023-08-30T00:55:51;2.20;;;2.10;;
6642;SDS011;3357;48.050;7.800;2023-08-30T00:58:16;2.43;;;2.33;;
6642;SDS011;3357;48.050;7.800;2023-08-30T01:00:42;2.40;;;2.30;;
6642;SDS011;3357;48.050;7.800;2023-08-30T01:03:07;2.67;;;1.90;;
6642;SDS011;3357;48.050;7.800;2023-08-30T01:05:33;2.00;;;1.90;;
6642;SDS011;3357;48.050;7.800;2023-08-30T01:07:58;2.67;;;1.90;;
6642;SDS011;3357;48.050;7.800;2023-08-30T01:10:36;5.80;;;2.30;;
6642;SDS011;3357;48.050;7.800;2023-08-30T01:13:08;2.40;;;2.30;;
6642;SDS011;3357;48.050;7.800;2023-08-30T01:15:35;2.77;;;2.50;;
6642;SDS011;3357;48.050;7.800;2023-08-30T01:18:01;2.00;;;1.90;;
6642;SDS011;3357;48.050;7.800;2023-08-30T01:20:29;2.23;;;2.13;;
6642;SDS011;3357;48.050;7.800;2023-08-30T01:25:47;2.87;;;2.77;;
6642;SDS011;3357;48.050;7.800;2023-08-30T01:28:19;3.23;;;2.70;;
6642;SDS011;3357;48.050;7.800;2023-08-30T01:30:47;8.93;;;2.43;;
6642;SDS011;3357;48.050;7.800;2023-08-30T01:33:13;2.20;;;2.10;;
6642;SDS011;3357;48.050;7.800;2023-08-30T01:35:40;2.23;;;2.10;;
6642;SDS011;3357;48.050;7.800;2023-08-30T01:38:06;1.80;;;1.70;;
6642;SDS011;3357;48.050;7.800;2023-08-30T01:40:33;2.50;;;2.27;;
6642;SDS011;3357;48.050;7.800;2023-08-30T01:43:01;2.83;;;2.63;;
6642;SDS011;3357;48.050;7.800;2023-08-30T01:45:29;2.50;;;2.30;;
6642;SDS011;3357;48.050;7.800;2023-08-30T01:47:55;2.60;;;2.40;;
6642;SDS011;3357;48.050;7.800;2023-08-30T01:50:21;4.17;;;2.70;;
6642;SDS011;3357;48.050;7.800;2023-08-30T01:52:47;2.50;;;2.40;;
6642;SDS011;3357;48.050;7.800;2023-08-30T01:55:13;4.27;;;3.00;;
6642;SDS011;3357;48.050;7.800;2023-08-30T01:57:38;4.77;;;2.97;;
6642;SDS011;3357;48.050;7.800;2023-08-30T02:00:04;4.13;;;2.57;;
6642;SDS011;3357;48.050;7.800;2023-08-30T02:02:30;4.90;;;2.90;;
6642;SDS011;3357;48.050;7.800;2023-08-30T02:04:56;4.77;;;2.37;;
6642;SDS011;3357;48.050;7.800;2023-08-30T02:07:25;2.50;;;1.97;;
6642;SDS011;3357;48.050;7.800;2023-08-30T02:10:10;2.43;;;2.23;;
6642;SDS011;3357;48.050;7.800;2023-08-30T02:12:42;2.37;;;2.17;;
6642;SDS011;3357;48.050;7.800;2023-08-30T02:15:11;2.37;;;1.93;;
6642;SDS011;3357;48.050;7.800;2023-08-30T02:17:37;1.77;;;1.67;;
6642;SDS011;3357;48.050;7.800;2023-08-30T02:20:03;1.83;;;1.73;;
6642;SDS011;3357;48.050;7.800;2023-08-30T02:22:30;2.40;;;1.47;;
6642;SDS011;3357;48.050;7.800;2023-08-30T02:24:57;2.20;;;2.10;;
6642;SDS011;3357;48.050;7.800;2023-08-30T02:27:22;2.20;;;2.10;;
6642;SDS011;3357;48.050;7.800;2023-08-30T02:29:48;1.90;;;1.80;;
6642;SDS011;3357;48.050;7.800;2023-08-30T02:32:13;5.70;;;1.67;;
6642;SDS011;3357;48.050;7.800;2023-08-30T02:34:40;2.37;;;2.17;;
6642;SDS011;3357;48.050;7.800;2023-08-30T02:37:05;2.63;;;2.43;;
6642;SDS011;3357;48.050;7.800;2023-08-30T02:39:30;4.37;;;2.50;;
6642;SDS011;3357;48.050;7.800;2023-08-30T02:41:55;2.50;;;2.30;;
6642;SDS011;3357;48.050;7.800;2023-08-30T02:44:21;3.00;;;2.80;;
6642;SDS011;3357;48.050;7.800;2023-08-30T02:46:46;2.93;;;2.73;;
6642;SDS011;3357;48.050;7.800;2023-08-30T02:49:11;3.23;;;2.70;;
6642;SDS011;3357;48.050;7.800;2023-08-30T02:51:36;2.30;;;2.20;;
6642;SDS011;3357;48.050;7.800;2023-08-30T02:54:02;4.90;;;2.23;;
6642;SDS011;3357;48.050;7.800;2023-08-30T02:56:27;2.30;;;2.20;;
6642;SDS011;3357;48.050;7.800;2023-08-30T02:58:53;4.70;;;1.97;;
6642;SDS011;3357;48.050;7.800;2023-08-30T03:01:18;2.47;;;2.27;;
6642;SDS011;3357;48.050;7.800;2023-08-30T03:03:45;3.10;;;1.60;;
6642;SDS011;3357;48.050;7.800;2023-08-30T03:06:10;1.67;;;1.53;;
6642;SDS011;3357;48.050;7.800;2023-08-30T03:08:36;1.77;;;1.57;;
6642;SDS011;3357;48.050;7.800;2023-08-30T03:11:08;1.77;;;1.67;;
6642;SDS011;3357;48.050;7.800;2023-08-30T03:13:34;4.67;;;1.60;;
6642;SDS011;3357;48.050;7.800;2023-08-30T03:15:59;1.80;;;1.70;;
6642;SDS011;3357;48.050;7.800;2023-08-30T03:18:24;2.00;;;1.90;;
6642;SDS011;3357;48.050;7.800;2023-08-30T03:20:59;1.50;;;1.40;;
6642;SDS011;3357;48.050;7.800;2023-08-30T03:23:24;1.70;;;1.57;;
6642;SDS011;3357;48.050;7.800;2023-08-30T03:25:51;2.60;;;1.87;;
6642;SDS011;3357;48.050;7.800;2023-08-30T03:28:16;1.50;;;1.40;;
6642;SDS011;3357;48.050;7.800;2023-08-30T03:30:41;1.50;;;1.40;;
6642;SDS011;3357;48.050;7.800;2023-08-30T03:33:07;3.20;;;1.20;;
6642;SDS011;3357;48.050;7.800;2023-08-30T03:35:33;1.23;;;1.20;;
6642;SDS011;3357;48.050;7.800;2023-08-30T03:38:00;1.23;;;1.17;;
6642;SDS011;3357;48.050;7.800;2023-08-30T03:40:25;1.40;;;1.40;;
6642;SDS011;3357;48.050;7.800;2023-08-30T03:42:52;2.60;;;1.50;;
6642;SDS011;3357;48.050;7.800;2023-08-30T03:45:17;1.30;;;1.20;;
6642;SDS011;3357;48.050;7.800;2023-08-30T03:47:43;1.03;;;1.03;;
6642;SDS011;3357;48.050;7.800;2023-08-30T03:50:08;1.50;;;1.40;;
6642;SDS011;3357;48.050;7.800;2023-08-30T03:52:34;1.20;;;1.20;;
6642;SDS011;3357;48.050;7.800;2023-08-30T03:55:00;1.80;;;1.47;;
6642;SDS011;3357;48.050;7.800;2023-08-30T03:57:25;1.73;;;1.63;;
6642;SDS011;3357;48.050;7.800;2023-08-30T03:59:51;1.73;;;1.50;;
6642;SDS011;3357;48.050;7.800;2023-08-30T04:02:16;6.83;;;1.30;;
6642;SDS011;3357;48.050;7.800;2023-08-30T04:04:41;2.83;;;1.53;;
6642;SDS011;3357;48.050;7.800;2023-08-30T04:07:07;1.43;;;1.33;;
6642;SDS011;3357;48.050;7.800;2023-08-30T04:09:32;2.97;;;1.63;;
6642;SDS011;3357;48.050;7.800;2023-08-30T04:11:57;1.67;;;1.50;;
6642;SDS011;3357;48.050;7.800;2023-08-30T04:14:24;2.40;;;1.87;;
6642;SDS011;3357;48.050;7.800;2023-08-30T04:16:49;4.37;;;1.70;;
6642;SDS011;3357;48.050;7.800;2023-08-30T04:19:15;2.00;;;1.53;;
6642;SDS011;3357;48.050;7.800;2023-08-30T04:21:40;2.80;;;1.57;;
6642;SDS011;3357;48.050;7.800;2023-08-30T04:24:05;2.03;;;1.80;;
6642;SDS011;3357;48.050;7.800;2023-08-30T04:26:31;2.47;;;1.43;;
6642;SDS011;3357;48.050;7.800;2023-08-30T04:28:56;2.20;;;1.43;;
6642;SDS011;3357;48.050;7.800;2023-08-30T04:31:21;1.47;;;1.40;;
6642;SDS011;3357;48.050;7.800;2023-08-30T04:33:47;1.20;;;1.10;;
6642;SDS011;3357;48.050;7.800;2023-08-30T04:36:12;1.90;;;1.20;;
6642;SDS011;3357;48.050;7.800;2023-08-30T04:38:37;3.10;;;1.80;;
6642;SDS011;3357;48.050;7.800;2023-08-30T04:41:02;3.07;;;1.80;;
6642;SDS011;3357;48.050;7.800;2023-08-30T04:43:28;1.60;;;1.50;;
6642;SDS011;3357;48.050;7.800;2023-08-30T04:45:54;1.73;;;1.63;;
6642;SDS011;3357;48.050;7.800;2023-08-30T04:48:19;1.87;;;1.77;;
6642;SDS011;3357;48.050;7.800;2023-08-30T04:50:44;3.73;;;2.33;;
6642;SDS011;3357;48.050;7.800;2023-08-30T04:53:09;1.80;;;1.70;;
6642;SDS011;3357;48.050;7.800;2023-08-30T04:55:35;2.20;;;2.00;;
6642;SDS011;3357;48.050;7.800;2023-08-30T04:58:00;2.30;;;2.10;;
6642;SDS011;3357;48.050;7.800;2023-08-30T05:00:25;2.17;;;2.07;;
6642;SDS011;3357;48.050;7.800;2023-08-30T05:02:51;4.90;;;2.00;;
6642;SDS011;3357;48.050;7.800;2023-08-30T05:05:16;1.83;;;1.73;;
6642;SDS011;3357;48.050;7.800;2023-08-30T05:07:41;2.20;;;2.10;;
6642;SDS011;3357;48.050;7.800;2023-08-30T05:10:07;2.20;;;2.00;;
6642;SDS011;3357;48.050;7.800;2023-08-30T05:12:35;3.33;;;2.60;;
6642;SDS011;3357;48.050;7.800;2023-08-30T05:15:01;3.07;;;2.40;;
6642;SDS011;3357;48.050;7.800;2023-08-30T05:17:26;13.37;;;2.00;;
6642;SDS011;3357;48.050;7.800;2023-08-30T05:19:53;2.80;;;1.90;;
6642;SDS011;3357;48.050;7.800;2023-08-30T05:22:19;2.30;;;2.00;;
6642;SDS011;3357;48.050;7.800;2023-08-30T05:24:44;2.90;;;2.53;;
6642;SDS011;3357;48.050;7.800;2023-08-30T05:27:09;2.23;;;2.03;;
6642;SDS011;3357;48.050;7.800;2023-08-30T05:29:36;2.40;;;2.30;;
6642;SDS011;3357;48.050;7.800;2023-08-30T05:32:01;2.40;;;2.20;;
6642;SDS011;3357;48.050;7.800;2023-08-30T05:34:27;3.00;;;1.90;;
6642;SDS011;3357;48.050;7.800;2023-08-30T05:36:53;3.17;;;2.00;;
6642;SDS011;3357;48.050;7.800;2023-08-30T05:39:18;4.27;;;2.50;;
6642;SDS011;3357;48.050;7.800;2023-08-30T05:41:43;3.03;;;2.83;;
6642;SDS011;3357;48.050;7.800;2023-08-30T05:44:09;4.23;;;3.00;;
6642;SDS011;3357;48.050;7.800;2023-08-30T05:46:34;8.33;;;2.70;;
6642;SDS011;3357;48.050;7.800;2023-08-30T05:48:59;4.30;;;2.93;;
6642;SDS011;3357;48.050;7.800;2023-08-30T05:51:27;5.50;;;4.40;;
6642;SDS011;3357;48.050;7.800;2023-08-30T05:53:52;6.43;;;4.33;;
6642;SDS011;3357;48.050;7.800;2023-08-30T05:56:18;5.10;;;4.57;;
6642;SDS011;3357;48.050;7.800;2023-08-30T05:58:43;3.70;;;3.40;;
6642;SDS011;3357;48.050;7.800;2023-08-30T06:01:08;3.87;;;3.53;;
6642;SDS011;3357;48.050;7.800;2023-08-30T06:03:34;4.60;;;3.50;;
6642;SDS011;3357;48.050;7.800;2023-08-30T06:06:00;4.50;;;3.23;;
6642;SDS011;3357;48.050;7.800;2023-08-30T06:08:26;3.30;;;3.10;;
6642;SDS011;3357;48.050;7.800;2023-08-30T06:10:51;13.27;;;2.77;;
6642;SDS011;3357;48.050;7.800;2023-08-30T06:13:17;3.23;;;3.03;;
6642;SDS011;3357;48.050;7.800;2023-08-30T06:15:42;4.00;;;2.73;;
6642;SDS011;3357;48.050;7.800;2023-08-30T06:18:09;3.47;;;3.17;;
6642;SDS011;3357;48.050;7.800;2023-08-30T06:20:35;4.03;;;2.87;;
6642;SDS011;3357;48.050;7.800;2023-08-30T06:23:02;3.00;;;2.80;;
6642;SDS011;3357;48.050;7.800;2023-08-30T06:25:28;2.60;;;2.40;;
6642;SDS011;3357;48.050;7.800;2023-08-30T06:27:57;3.20;;;2.90;;
6642;SDS011;3357;48.050;7.800;2023-08-30T06:30:24;3.67;;;3.47;;
6642;SDS011;3357;48.050;7.800;2023-08-30T06:32:50;6.83;;;3.03;;
6642;SDS011;3357;48.050;7.800;2023-08-30T06:35:15;3.20;;;2.90;;
6642;SDS011;3357;48.050;7.800;2023-08-30T06:37:40;3.33;;;3.13;;
6642;SDS011;3357;48.050;7.800;2023-08-30T06:40:06;3.70;;;3.40;;
6642;SDS011;3357;48.050;7.800;2023-08-30T06:42:32;9.50;;;2.87;;
6642;SDS011;3357;48.050;7.800;2023-08-30T06:44:57;3.60;;;3.30;;
6642;SDS011;3357;48.050;7.800;2023-08-30T06:47:22;2.80;;;2.57;;
6642;SDS011;3357;48.050;7.800;2023-08-30T06:49:47;3.80;;;2.90;;
6642;SDS011;3357;48.050;7.800;2023-08-30T06:52:13;4.90;;;3.03;;
6642;SDS011;3357;48.050;7.800;2023-08-30T06:54:38;5.93;;;2.90;;
6642;SDS011;3357;48.050;7.800;2023-08-30T06:57:03;4.50;;;2.80;;
6642;SDS011;3357;48.050;7.800;2023-08-30T06:59:30;5.00;;;2.53;;
6642;SDS011;3357;48.050;7.800;2023-08-30T07:01:56;4.60;;;2.97;;
6642;SDS011;3357;48.050;7.800;2023-08-30T07:04:21;6.63;;;2.80;;
6642;SDS011;3357;48.050;7.800;2023-08-30T07:06:46;2.70;;;2.47;;
6642;SDS011;3357;48.050;7.800;2023-08-30T07:09:12;4.33;;;2.40;;
6642;SDS011;3357;48.050;7.800;2023-08-30T07:11:37;3.33;;;2.40;;
6642;SDS011;3357;48.050;7.800;2023-08-30T07:14:03;2.57;;;2.47;;
6642;SDS011;3357;48.050;7.800;2023-08-30T07:16:29;2.80;;;2.33;;
6642;SDS011;3357;48.050;7.800;2023-08-30T07:18:54;2.40;;;2.30;;
6642;SDS011;3357;48.050;7.800;2023-08-30T07:21:19;2.63;;;2.43;;
6642;SDS011;3357;48.050;7.800;2023-08-30T07:23:44;2.33;;;2.23;;
6642;SDS011;3357;48.050;7.800;2023-08-30T07:26:10;2.57;;;2.37;;
6642;SDS011;3357;48.050;7.800;2023-08-30T07:28:35;4.80;;;2.50;;
6642;SDS011;3357;48.050;7.800;2023-08-30T07:31:04;3.30;;;2.63;;
6642;SDS011;3357;48.050;7.800;2023-08-30T07:33:30;3.13;;;2.50;;
6642;SDS011;3357;48.050;7.800;2023-08-30T07:35:55;4.30;;;2.43;;
6642;SDS011;3357;48.050;7.800;2023-08-30T07:38:20;6.07;;;2.70;;
6642;SDS011;3357;48.050;7.800;2023-08-30T07:40:45;2.93;;;2.30;;
6642;SDS011;3357;48.050;7.800;2023-08-30T07:43:11;2.53;;;2.33;;
6642;SDS011;3357;48.050;7.800;2023-08-30T07:45:36;3.03;;;2.40;;
6642;SDS011;3357;48.050;7.800;2023-08-30T07:48:01;2.70;;;2.50;;
6642;SDS011;3357;48.050;7.800;2023-08-30T07:50:26;1.80;;;1.70;;
6642;SDS011;3357;48.050;7.800;2023-08-30T07:52:52;3.07;;;2.07;;
6642;SDS011;3357;48.050;7.800;2023-08-30T07:55:17;2.20;;;2.00;;
6642;SDS011;3357;48.050;7.800;2023-08-30T07:57:42;1.87;;;1.73;;
6642;SDS011;3357;48.050;7.800;2023-08-30T08:00:08;1.97;;;1.80;;
6642;SDS011;3357;48.050;7.800;2023-08-30T08:02:33;2.23;;;1.73;;
6642;SDS011;3357;48.050;7.800;2023-08-30T08:04:59;3.30;;;2.57;;
6642;SDS011;3357;48.050;7.800;2023-08-30T08:07:24;1.90;;;1.80;;
6642;SDS011;3357;48.050;7.800;2023-08-30T08:09:49;2.80;;;1.80;;
6642;SDS011;3357;48.050;7.800;2023-08-30T08:12:14;2.00;;;1.90;;
6642;SDS011;3357;48.050;7.800;2023-08-30T08:14:40;4.63;;;1.80;;
6642;SDS011;3357;48.050;7.800;2023-08-30T08:17:05;1.60;;;1.50;;
6642;SDS011;3357;48.050;7.800;2023-08-30T08:19:30;2.83;;;1.83;;
6642;SDS011;3357;48.050;7.800;2023-08-30T08:21:56;2.10;;;1.97;;
6642;SDS011;3357;48.050;7.800;2023-08-30T08:24:21;3.93;;;1.80;;
6642;SDS011;3357;48.050;7.800;2023-08-30T08:26:46;2.13;;;1.90;;
6642;SDS011;3357;48.050;7.800;2023-08-30T08:29:11;2.90;;;1.80;;
6642;SDS011;3357;48.050;7.800;2023-08-30T08:31:37;1.80;;;1.70;;
6642;SDS011;3357;48.050;7.800;2023-08-30T08:34:20;1.90;;;1.80;;
6642;SDS011;3357;48.050;7.800;2023-08-30T08:36:45;3.20;;;2.00;;
6642;SDS011;3357;48.050;7.800;2023-08-30T08:39:11;2.40;;;2.00;;
6642;SDS011;3357;48.050;7.800;2023-08-30T08:41:40;2.43;;;2.00;;
6642;SDS011;3357;48.050;7.800;2023-08-30T08:44:09;2.57;;;1.70;;
6642;SDS011;3357;48.050;7.800;2023-08-30T08:46:35;6.90;;;1.87;;
6642;SDS011;3357;48.050;7.800;2023-08-30T08:49:05;2.40;;;1.87;;
6642;SDS011;3357;48.050;7.800;2023-08-30T08:51:34;2.50;;;2.23;;
6642;SDS011;3357;48.050;7.800;2023-08-30T08:54:02;2.07;;;1.90;;
6642;SDS011;3357;48.050;7.800;2023-08-30T08:56:28;2.60;;;2.23;;
6642;SDS011;3357;48.050;7.800;2023-08-30T08:58:55;3.53;;;1.73;;
6642;SDS011;3357;48.050;7.800;2023-08-30T09:01:20;1.70;;;1.60;;
6642;SDS011;3357;48.050;7.800;2023-08-30T09:03:46;2.90;;;2.37;;
6642;SDS011;3357;48.050;7.800;2023-08-30T09:06:11;2.50;;;2.23;;
6642;SDS011;3357;48.050;7.800;2023-08-30T09:08:37;1.83;;;1.73;;
6642;SDS011;3357;48.050;7.800;2023-08-30T09:11:02;2.73;;;1.93;;
6642;SDS011;3357;48.050;7.800;2023-08-30T09:13:27;2.67;;;2.53;;
6642;SDS011;3357;48.050;7.800;2023-08-30T09:15:55;2.13;;;1.90;;
6642;SDS011;3357;48.050;7.800;2023-08-30T09:18:20;2.20;;;2.00;;
6642;SDS011;3357;48.050;7.800;2023-08-30T09:20:46;2.70;;;2.50;;
6642;SDS011;3357;48.050;7.800;2023-08-30T09:23:18;2.30;;;2.07;;
6642;SDS011;3357;48.050;7.800;2023-08-30T09:25:45;3.97;;;2.53;;
6642;SDS011;3357;48.050;7.800;2023-08-30T09:28:10;2.93;;;2.60;;
6642;SDS011;3357;48.050;7.800;2023-08-30T09:30:36;1.90;;;1.80;;
6642;SDS011;3357;48.050;7.800;2023-08-30T09:33:01;3.03;;;2.37;;
6642;SDS011;3357;48.050;7.800;2023-08-30T09:35:30;1.97;;;1.87;;
6642;SDS011;3357;48.050;7.800;2023-08-30T09:37:56;1.80;;;1.70;;
6642;SDS011;3357;48.050;7.800;2023-08-30T09:40:21;2.30;;;2.10;;
6642;SDS011;3357;48.050;7.800;2023-08-30T09:42:47;3.30;;;2.40;;
6642;SDS011;3357;48.050;7.800;2023-08-30T09:45:22;1.90;;;1.80;;
6642;SDS011;3357;48.050;7.800;2023-08-30T09:47:51;1.50;;;1.40;;
6642;SDS011;3357;48.050;7.800;2023-08-30T09:50:17;2.13;;;1.83;;
6642;SDS011;3357;48.050;7.800;2023-08-30T09:52:43;1.70;;;1.60;;
6642;SDS011;3357;48.050;7.800;2023-08-30T09:55:10;1.50;;;1.40;;
6642;SDS011;3357;48.050;7.800;2023-08-30T09:57:35;1.97;;;1.87;;
6642;SDS011;3357;48.050;7.800;2023-08-30T10:00:00;2.17;;;2.07;;
6642;SDS011;3357;48.050;7.800;2023-08-30T10:02:28;2.00;;;1.90;;
6642;SDS011;3357;48.050;7.800;2023-08-30T10:04:54;1.83;;;1.73;;
6642;SDS011;3357;48.050;7.800;2023-08-30T10:07:20;2.20;;;2.00;;
6642;SDS011;3357;48.050;7.800;2023-08-30T10:09:46;4.53;;;1.90;;
6642;SDS011;3357;48.050;7.800;2023-08-30T10:12:11;2.00;;;1.90;;
6642;SDS011;3357;48.050;7.800;2023-08-30T10:14:37;3.67;;;2.10;;
6642;SDS011;3357;48.050;7.800;2023-08-30T10:17:03;2.40;;;2.20;;
6642;SDS011;3357;48.050;7.800;2023-08-30T10:19:30;3.67;;;2.10;;
6642;SDS011;3357;48.050;7.800;2023-08-30T10:22:05;3.57;;;2.17;;
6642;SDS011;3357;48.050;7.800;2023-08-30T10:24:39;2.13;;;2.03;;
6642;SDS011;3357;48.050;7.800;2023-08-30T10:27:06;2.50;;;2.30;;
6642;SDS011;3357;48.050;7.800;2023-08-30T10:29:33;2.50;;;1.70;;
6642;SDS011;3357;48.050;7.800;2023-08-30T10:32:05;1.90;;;1.80;;
6642;SDS011;3357;48.050;7.800;2023-08-30T10:34:31;1.70;;;1.60;;
6642;SDS011;3357;48.050;7.800;2023-08-30T10:36:59;2.10;;;2.00;;
6642;SDS011;3357;48.050;7.800;2023-08-30T10:42:07;2.27;;;2.17;;
6642;SDS011;3357;48.050;7.800;2023-08-30T10:44:52;1.63;;;1.53;;
6642;SDS011;3357;48.050;7.800;2023-08-30T10:47:29;2.47;;;1.70;;
6642;SDS011;3357;48.050;7.800;2023-08-30T10:49:58;2.13;;;1.93;;
6642;SDS011;3357;48.050;7.800;2023-08-30T10:52:26;3.00;;;1.93;;
6642;SDS011;3357;48.050;7.800;2023-08-30T10:54:53;1.80;;;1.70;;
6642;SDS011;3357;48.050;7.800;2023-08-30T10:57:24;2.10;;;2.00;;
6642;SDS011;3357;48.050;7.800;2023-08-30T11:02:32;2.10;;;1.50;;
6642;SDS011;3357;48.050;7.800;2023-08-30T11:04:58;9.70;;;1.50;;
6642;SDS011;3357;48.050;7.800;2023-08-30T11:07:25;2.53;;;2.10;;
6642;SDS011;3357;48.050;7.800;2023-08-30T11:09:51;2.13;;;1.93;;
6642;SDS011;3357;48.050;7.800;2023-08-30T11:12:17;1.80;;;1.70;;
6642;SDS011;3357;48.050;7.800;2023-08-30T11:14:43;2.70;;;2.57;;
6642;SDS011;3357;48.050;7.800;2023-08-30T11:17:11;2.90;;;2.30;;
6642;SDS011;3357;48.050;7.800;2023-08-30T11:19:36;2.57;;;1.93;;
6642;SDS011;3357;48.050;7.800;2023-08-30T11:22:02;3.40;;;1.73;;
6642;SDS011;3357;48.050;7.800;2023-08-30T11:24:27;2.00;;;1.80;;
6642;SDS011;3357;48.050;7.800;2023-08-30T11:26:53;2.20;;;1.70;;
6642;SDS011;3357;48.050;7.800;2023-08-30T11:29:19;1.80;;;1.70;;
6642;SDS011;3357;48.050;7.800;2023-08-30T11:31:44;1.50;;;1.40;;
6642;SDS011;3357;48.050;7.800;2023-08-30T11:34:10;1.70;;;1.60;;
6642;SDS011;3357;48.050;7.800;2023-08-30T11:36:36;1.70;;;1.60;;
6642;SDS011;3357;48.050;7.800;2023-08-30T11:39:02;1.70;;;1.60;;
6642;SDS011;3357;48.050;7.800;2023-08-30T11:41:28;1.73;;;1.30;;
6642;SDS011;3357;48.050;7.800;2023-08-30T11:43:54;5.60;;;1.73;;
6642;SDS011;3357;48.050;7.800;2023-08-30T11:46:20;2.00;;;1.90;;
6642;SDS011;3357;48.050;7.800;2023-08-30T11:48:46;2.10;;;2.00;;
6642;SDS011;3357;48.050;7.800;2023-08-30T11:51:12;3.30;;;2.13;;
6642;SDS011;3357;48.050;7.800;2023-08-30T11:53:38;2.53;;;2.33;;
6642;SDS011;3357;48.050;7.800;2023-08-30T11:56:07;3.07;;;2.33;;
6642;SDS011;3357;48.050;7.800;2023-08-30T11:58:33;13.53;;;2.27;;
6642;SDS011;3357;48.050;7.800;2023-08-30T12:01:02;9.30;;;2.43;;
6642;SDS011;3357;48.050;7.800;2023-08-30T12:03:31;2.30;;;2.20;;
6642;SDS011;3357;48.050;7.800;2023-08-30T12:05:57;2.67;;;2.00;;
6642;SDS011;3357;48.050;7.800;2023-08-30T12:08:23;2.53;;;2.30;;
6642;SDS011;3357;48.050;7.800;2023-08-30T12:10:53;2.03;;;1.93;;
6642;SDS011;3357;48.050;7.800;2023-08-30T12:13:20;2.57;;;2.47;;
6642;SDS011;3357;48.050;7.800;2023-08-30T12:15:52;2.80;;;2.30;;
6642;SDS011;3357;48.050;7.800;2023-08-30T12:18:21;2.60;;;2.40;;
6642;SDS011;3357;48.050;7.800;2023-08-30T12:20:53;2.30;;;2.20;;
6642;SDS011;3357;48.050;7.800;2023-08-30T12:23:26;2.70;;;1.80;;
6642;SDS011;3357;48.050;7.800;2023-08-30T12:28:27;1.73;;;1.57;;
6642;SDS011;3357;48.050;7.800;2023-08-30T12:30:53;2.07;;;1.97;;
6642;SDS011;3357;48.050;7.800;2023-08-30T12:33:18;1.90;;;1.80;;
6642;SDS011;3357;48.050;7.800;2023-08-30T12:35:44;6.47;;;1.60;;
6642;SDS011;3357;48.050;7.800;2023-08-30T12:38:09;1.63;;;1.47;;
6642;SDS011;3357;48.050;7.800;2023-08-30T12:40:36;3.07;;;1.57;;
6642;SDS011;3357;48.050;7.800;2023-08-30T12:43:02;3.10;;;1.27;;
6642;SDS011;3357;48.050;7.800;2023-08-30T12:45:27;1.83;;;1.37;;
6642;SDS011;3357;48.050;7.800;2023-08-30T12:47:52;1.83;;;1.40;;
6642;SDS011;3357;48.050;7.800;2023-08-30T12:50:18;1.13;;;1.10;;
6642;SDS011;3357;48.050;7.800;2023-08-30T12:52:43;2.17;;;1.20;;
6642;SDS011;3357;48.050;7.800;2023-08-30T12:55:08;1.47;;;1.33;;
6642;SDS011;3357;48.050;7.800;2023-08-30T12:57:33;1.03;;;1.03;;
6642;SDS011;3357;48.050;7.800;2023-08-30T12:59:59;1.30;;;1.20;;
6642;SDS011;3357;48.050;7.800;2023-08-30T13:02:24;1.90;;;1.30;;
6642;SDS011;3357;48.050;7.800;2023-08-30T13:04:49;1.60;;;1.20;;
6642;SDS011;3357;48.050;7.800;2023-08-30T13:07:15;1.30;;;1.20;;
6642;SDS011;3357;48.050;7.800;2023-08-30T13:09:40;1.10;;;1.10;;
6642;SDS011;3357;48.050;7.800;2023-08-30T13:12:05;1.10;;;1.10;;
6642;SDS011;3357;48.050;7.800;2023-08-30T13:14:31;1.37;;;1.33;;
6642;SDS011;3357;48.050;7.800;2023-08-30T13:16:56;1.30;;;1.30;;
6642;SDS011;3357;48.050;7.800;2023-08-30T13:19:21;2.40;;;1.20;;
6642;SDS011;3357;48.050;7.800;2023-08-30T13:21:47;1.10;;;1.10;;
6642;SDS011;3357;48.050;7.800;2023-08-30T13:24:12;1.40;;;1.20;;
6642;SDS011;3357;48.050;7.800;2023-08-30T13:26:37;2.10;;;1.33;;
6642;SDS011;3357;48.050;7.800;2023-08-30T13:29:02;2.03;;;1.20;;
6642;SDS011;3357;48.050;7.800;2023-08-30T13:31:28;1.03;;;1.03;;
6642;SDS011;3357;48.050;7.800;2023-08-30T13:33:53;1.17;;;1.10;;
6642;SDS011;3357;48.050;7.800;2023-08-30T13:36:18;1.03;;;1.03;;
6642;SDS011;3357;48.050;7.800;2023-08-30T13:38:44;1.03;;;1.03;;
6642;SDS011;3357;48.050;7.800;2023-08-30T13:41:09;1.10;;;1.00;;
6642;SDS011;3357;48.050;7.800;2023-08-30T13:43:34;1.57;;;1.30;;
6642;SDS011;3357;48.050;7.800;2023-08-30T13:45:59;1.00;;;1.00;;
6642;SDS011;3357;48.050;7.800;2023-08-30T13:48:25;1.40;;;1.30;;
6642;SDS011;3357;48.050;7.800;2023-08-30T13:50:50;4.60;;;1.40;;
6642;SDS011;3357;48.050;7.800;2023-08-30T13:53:15;1.57;;;1.07;;
6642;SDS011;3357;48.050;7.800;2023-08-30T13:55:44;1.30;;;1.20;;
6642;SDS011;3357;48.050;7.800;2023-08-30T13:58:10;2.47;;;1.03;;
6642;SDS011;3357;48.050;7.800;2023-08-30T14:00:36;2.20;;;1.33;;
6642;SDS011;3357;48.050;7.800;2023-08-30T14:03:01;1.13;;;1.00;;
6642;SDS011;3357;48.050;7.800;2023-08-30T14:05:27;1.47;;;1.20;;
6642;SDS011;3357;48.050;7.800;2023-08-30T14:07:53;1.57;;;1.00;;
6642;SDS011;3357;48.050;7.800;2023-08-30T14:10:18;2.40;;;1.17;;
6642;SDS011;3357;48.050;7.800;2023-08-30T14:12:44;1.23;;;0.97;;
6642;SDS011;3357;48.050;7.800;2023-08-30T14:15:09;1.37;;;1.17;;
6642;SDS011;3357;48.050;7.800;2023-08-30T14:17:34;1.10;;;1.00;;
6642;SDS011;3357;48.050;7.800;2023-08-30T14:20:00;2.70;;;1.37;;
6642;SDS011;3357;48.050;7.800;2023-08-30T14:22:26;1.23;;;1.10;;
6642;SDS011;3357;48.050;7.800;2023-08-30T14:24:51;1.17;;;1.07;;
6642;SDS011;3357;48.050;7.800;2023-08-30T14:27:16;1.20;;;1.20;;
6642;SDS011;3357;48.050;7.800;2023-08-30T14:29:41;1.70;;;1.03;;
6642;SDS011;3357;48.050;7.800;2023-08-30T14:32:07;0.87;;;0.87;;
6642;SDS011;3357;48.050;7.800;2023-08-30T14:34:32;0.90;;;0.90;;
6642;SDS011;3357;48.050;7.800;2023-08-30T14:36:57;1.10;;;1.00;;
6642;SDS011;3357;48.050;7.800;2023-08-30T14:39:23;1.43;;;0.90;;
6642;SDS011;3357;48.050;7.800;2023-08-30T14:41:48;0.90;;;0.90;;
6642;SDS011;3357;48.050;7.800;2023-08-30T14:44:13;1.70;;;1.03;;
6642;SDS011;3357;48.050;7.800;2023-08-30T14:46:38;1.40;;;1.10;;
6642;SDS011;3357;48.050;7.800;2023-08-30T14:49:04;0.90;;;0.90;;
6642;SDS011;3357;48.050;7.800;2023-08-30T14:51:29;2.40;;;1.03;;
6642;SDS011;3357;48.050;7.800;2023-08-30T14:53:54;2.87;;;1.00;;
6642;SDS011;3357;48.050;7.800;2023-08-30T14:56:19;1.10;;;1.00;;
6642;SDS011;3357;48.050;7.800;2023-08-30T14:58:45;0.90;;;0.90;;
6642;SDS011;3357;48.050;7.800;2023-08-30T15:01:14;0.80;;;0.80;;
6642;SDS011;3357;48.050;7.800;2023-08-30T15:03:40;1.73;;;0.90;;
6642;SDS011;3357;48.050;7.800;2023-08-30T15:06:05;1.00;;;1.00;;
6642;SDS011;3357;48.050;7.800;2023-08-30T15:08:30;1.10;;;1.10;;
6642;SDS011;3357;48.050;7.800;2023-08-30T15:10:56;2.20;;;0.87;;
6642;SDS011;3357;48.050;7.800;2023-08-30T15:13:22;1.20;;;0.93;;
6642;SDS011;3357;48.050;7.800;2023-08-30T15:15:47;1.83;;;1.00;;
6642;SDS011;3357;48.050;7.800;2023-08-30T15:18:14;2.50;;;0.80;;